KSUW

Richard I Bong Airport

Superior, Wisconsin, USA
METAR KSUW 220535Z AUTO 00000KT 10SM CLR 08/08 A2996 RMK AO2 T00830081
Observed Flight Rules
Jun-22 @ 05:35 UTC (10 minutes ago) Visual Flight Rules
Visibility Clouds
10 miles
  • Clear skies
Temperatures Readings
Current 8°C / 46°F
Dewpoint 8°C / 46°F
Humidity 100%
Altimeter 29.96" Hg
Pressure 1015 hPa
Elevation 206
METAR KSUW 220535Z AUTO 00000KT 10SM CLR 08/08 A2996 RMK AO2 T00830081
Observed Flight Rules
Jun-22 @ 05:35 UTC
(10 minutes ago)
VFR
Clouds
  • Clear skies
Temperature Dewpoint
8°C / 46°F 8°C / 46°F
Humidity Altimeter Pressure
100% 29.96" Hg 1015 hPa